KCVG/CVG METAR and TAF weather

Enter ICAO airport designator
Station Type Date Time Source
KCVG METAR 2019/06/26 19:52 UTC NOAA

KCVG 261952Z 20004KT 10SM FEW049 31/19 A3013 RMK AO2 SLP191 T03110194


Station Type Date Time Source
KCVG Decoded METAR 2019/06/26 19:52 UTC NOAA

CINCINNATI/NORTHERN KY INTERNATIONAL , KY, United States (KCVG) 39-03N 084-40W 269M
Jun 26, 2019 - 03:52 PM EDT / 2019.06.26 1952 UTC
Wind: from the SSW (200 degrees) at 5 MPH (4 KT):0
Visibility: 10 mile(s):0
Sky conditions: mostly clear
Temperature: 88.0 F (31.1 C)
Dew Point: 66.9 F (19.4 C)
Relative Humidity: 49%
Pressure (altimeter): 30.13 in. Hg (1020 hPa)
ob: KCVG 261952Z 20004KT 10SM FEW049 31/19 A3013 RMK AO2 SLP191 T03110194
cycle: 20

Station Type Date Time Source
KCVG TAF 2019/06/26 18:51 UTC NOAA

TAF
AMD KCVG 261749Z 2618/2724 25007KT P6SM FEW050
FM270400 21003KT P6SM FEW200
TEMPO 2711/2713 5SM BR
FM271700 23007KT P6SM SCT060

Example: see airport list